createdAt,value
2019-05-29T00:01:03.325Z,26.40
2019-05-29T00:03:08.246Z,25.57
2019-05-29T00:05:12.303Z,24.00
2019-05-29T00:07:15.885Z,28.73
2019-05-29T00:09:19.753Z,26.60
2019-05-29T00:11:23.292Z,24.43
2019-05-29T00:13:26.845Z,30.27
2019-05-29T00:15:30.510Z,32.10
2019-05-29T00:17:34.049Z,29.30
2019-05-29T00:19:37.672Z,29.45
2019-05-29T00:21:41.217Z,29.18
2019-05-29T00:23:44.762Z,32.08
2019-05-29T00:25:48.341Z,30.45
2019-05-29T00:27:52.207Z,27.80
2019-05-29T00:29:55.997Z,31.97
2019-05-29T00:31:59.520Z,32.25
2019-05-29T00:34:03.058Z,28.67
2019-05-29T00:36:06.626Z,28.42
2019-05-29T00:38:10.603Z,29.25
2019-05-29T00:40:15.064Z,27.02
2019-05-29T00:42:18.698Z,29.77
2019-05-29T00:44:33.908Z,29.52
2019-05-29T00:46:28.094Z,28.87
2019-05-29T00:48:32.002Z,31.27
2019-05-29T00:50:35.581Z,30.50
2019-05-29T00:52:39.425Z,28.67
2019-05-29T00:54:43.345Z,31.50
2019-05-29T00:56:46.967Z,29.72
2019-05-29T00:58:50.585Z,28.05
2019-05-29T01:00:54.137Z,31.77
2019-05-29T01:02:57.689Z,24.50
2019-05-29T01:05:01.271Z,28.10
2019-05-29T01:07:04.826Z,35.20
2019-05-29T01:09:08.365Z,26.45
2019-05-29T01:11:12.618Z,26.55
2019-05-29T01:13:17.158Z,31.50
2019-05-29T01:15:22.406Z,30.97
2019-05-29T01:17:25.957Z,22.93
2019-05-29T01:19:29.588Z,23.10
2019-05-29T01:21:34.997Z,33.75
2019-05-29T01:23:38.469Z,29.90
2019-05-29T01:25:42.015Z,23.45
2019-05-29T01:27:45.660Z,15.72
2019-05-29T01:29:49.482Z,15.55
2019-05-29T01:31:53.163Z,22.17
2019-05-29T01:33:57.073Z,29.15
2019-05-29T01:36:01.193Z,32.65
2019-05-29T01:38:05.629Z,37.75
2019-05-29T01:40:19.451Z,38.40
2019-05-29T01:42:15.205Z,38.08
2019-05-29T01:44:19.346Z,34.80
2019-05-29T01:46:23.893Z,39.03
2019-05-29T01:48:27.829Z,40.65
2019-05-29T01:50:31.457Z,37.90
2019-05-29T01:52:35.203Z,31.25
2019-05-29T01:54:38.739Z,33.92
2019-05-29T01:56:42.286Z,28.62
2019-05-29T01:58:45.765Z,30.37
2019-05-29T02:00:49.304Z,31.30
2019-05-29T02:02:53.219Z,29.00
2019-05-29T02:04:56.812Z,30.92
2019-05-29T02:07:00.695Z,41.73
2019-05-29T02:09:06.955Z,41.25
2019-05-29T02:11:10.494Z,48.95
2019-05-29T02:13:15.143Z,34.55
2019-05-29T02:15:31.231Z,31.30
2019-05-29T02:17:25.700Z,25.50
2019-05-29T02:19:29.237Z,16.20
2019-05-29T02:21:33.246Z,15.72
2019-05-29T02:23:36.781Z,13.15
2019-05-29T02:25:40.241Z,10.45
2019-05-29T02:27:43.721Z,11.33
2019-05-29T02:29:47.254Z,11.57
2019-05-29T02:31:50.885Z,11.25
2019-05-29T02:33:54.346Z,9.55
2019-05-29T02:35:57.924Z,8.18
2019-05-29T02:38:01.486Z,8.80
2019-05-29T02:40:07.141Z,7.05
2019-05-29T02:42:10.746Z,4.90
2019-05-29T02:44:14.350Z,6.08
2019-05-29T02:46:19.498Z,4.62
2019-05-29T02:48:24.967Z,6.42
2019-05-29T02:50:29.405Z,4.47
2019-05-29T02:52:33.906Z,4.45
2019-05-29T02:54:37.977Z,8.55
2019-05-29T02:56:42.839Z,4.25
2019-05-29T02:58:47.019Z,3.42
2019-05-29T03:00:55.656Z,4.30
2019-05-29T03:02:59.236Z,3.05
2019-05-29T03:05:02.766Z,3.55
2019-05-29T03:07:06.374Z,4.45
2019-05-29T03:09:10.252Z,2.83
2019-05-29T03:11:14.229Z,2.25
2019-05-29T03:13:19.015Z,2.65
2019-05-29T03:15:23.528Z,4.03
2019-05-29T03:17:28.040Z,2.50
2019-05-29T03:19:34.748Z,3.67
2019-05-29T03:21:38.511Z,1.85
2019-05-29T03:23:42.055Z,1.55
2019-05-29T03:25:45.601Z,1.72
2019-05-29T03:27:49.315Z,1.25
2019-05-29T03:29:53.040Z,1.10
2019-05-29T03:31:57.454Z,2.65
2019-05-29T03:34:01.279Z,3.15
2019-05-29T03:36:05.091Z,2.35
2019-05-29T03:38:08.820Z,2.15
2019-05-29T03:40:12.287Z,4.10
2019-05-29T03:42:16.180Z,2.87
2019-05-29T03:44:19.878Z,1.10
2019-05-29T03:46:31.153Z,4.10
2019-05-29T03:48:29.790Z,2.22
2019-05-29T03:50:34.898Z,1.27
2019-05-29T03:52:39.069Z,2.62
2019-05-29T03:54:42.828Z,3.60
2019-05-29T03:56:46.295Z,1.75
2019-05-29T03:58:49.828Z,1.17
2019-05-29T04:00:53.426Z,0.98
2019-05-29T04:02:57.275Z,0.88
2019-05-29T04:05:00.825Z,1.12
2019-05-29T04:07:04.851Z,1.92
2019-05-29T04:09:08.496Z,1.60
2019-05-29T04:11:12.032Z,1.37
2019-05-29T04:13:15.744Z,1.50
2019-05-29T04:15:19.638Z,1.77
2019-05-29T04:17:25.429Z,1.92
2019-05-29T04:19:30.491Z,1.47
2019-05-29T04:21:38.415Z,1.50
2019-05-29T04:23:45.478Z,1.90
2019-05-29T04:25:51.024Z,3.02
2019-05-29T04:27:57.678Z,0.70
2019-05-29T04:30:03.501Z,0.62
2019-05-29T04:32:07.038Z,0.80
2019-05-29T04:34:10.755Z,0.68
2019-05-29T04:36:14.299Z,1.22
2019-05-29T04:38:17.933Z,1.37
2019-05-29T04:40:22.280Z,1.05
2019-05-29T04:42:26.154Z,2.47
2019-05-29T04:44:30.841Z,1.32
2019-05-29T04:46:36.213Z,1.15
2019-05-29T04:48:40.365Z,0.80
2019-05-29T04:50:45.212Z,1.98
2019-05-29T04:52:48.988Z,0.82
2019-05-29T04:54:52.539Z,0.90
2019-05-29T04:56:56.696Z,1.30
2019-05-29T04:59:00.157Z,1.37
2019-05-29T05:01:04.020Z,1.00
2019-05-29T05:03:07.554Z,2.77
2019-05-29T05:05:11.358Z,2.87
2019-05-29T05:07:15.253Z,1.37
2019-05-29T05:09:18.754Z,0.78
2019-05-29T05:11:22.371Z,1.47
2019-05-29T05:13:26.338Z,1.27
2019-05-29T05:15:31.684Z,1.12
2019-05-29T05:17:36.041Z,1.10
2019-05-29T05:19:40.189Z,0.90
2019-05-29T05:21:43.816Z,0.82
2019-05-29T05:23:47.438Z,1.02
2019-05-29T05:25:51.310Z,2.37
2019-05-29T05:27:54.851Z,3.00
2019-05-29T05:29:58.690Z,1.32
2019-05-29T05:32:02.542Z,1.25
2019-05-29T05:34:06.995Z,0.95
2019-05-29T05:36:12.702Z,1.72
2019-05-29T05:38:16.529Z,3.15
2019-05-29T05:40:20.242Z,1.45
2019-05-29T05:42:23.882Z,1.85
2019-05-29T05:44:27.781Z,0.98
2019-05-29T05:46:31.242Z,1.25
2019-05-29T05:48:35.132Z,1.27
2019-05-29T05:50:39.416Z,1.55
2019-05-29T05:52:43.024Z,1.77
2019-05-29T05:54:46.492Z,1.02
2019-05-29T05:56:53.465Z,2.87
2019-05-29T05:58:55.821Z,3.45
2019-05-29T06:00:59.289Z,1.30
2019-05-29T06:03:02.835Z,1.40
2019-05-29T06:05:07.415Z,2.50
2019-05-29T06:07:10.877Z,2.25
2019-05-29T06:09:15.201Z,1.50
2019-05-29T06:11:19.704Z,2.02
2019-05-29T06:13:23.413Z,2.62
2019-05-29T06:15:27.572Z,2.00
2019-05-29T06:17:32.317Z,2.35
2019-05-29T06:19:36.719Z,2.20
2019-05-29T06:21:40.889Z,3.00
2019-05-29T06:23:44.554Z,2.85
2019-05-29T06:25:48.419Z,4.55
2019-05-29T06:27:51.950Z,3.80
2019-05-29T06:29:55.529Z,2.62
2019-05-29T06:31:59.002Z,2.70
2019-05-29T06:34:02.538Z,4.15
2019-05-29T06:36:06.902Z,3.08
2019-05-29T06:38:10.731Z,2.95
2019-05-29T06:40:29.578Z,2.20
2019-05-29T06:42:33.580Z,2.20
2019-05-29T06:44:39.396Z,4.67
2019-05-29T06:46:42.651Z,2.30
2019-05-29T06:48:58.717Z,4.10
2019-05-29T06:50:52.286Z,2.12
2019-05-29T06:52:56.442Z,2.87
2019-05-29T06:55:00.186Z,2.27
2019-05-29T06:57:03.791Z,2.92
2019-05-29T06:59:07.258Z,5.53
2019-05-29T07:01:10.799Z,2.27
2019-05-29T07:03:14.376Z,3.95
2019-05-29T07:05:17.837Z,4.22
2019-05-29T07:07:21.458Z,2.55
2019-05-29T07:09:25.016Z,2.37
2019-05-29T07:11:28.582Z,2.40
2019-05-29T07:13:34.957Z,3.20
2019-05-29T07:15:38.591Z,2.15
2019-05-29T07:17:42.593Z,2.05
2019-05-29T07:19:57.954Z,2.17
2019-05-29T07:21:51.590Z,3.87
2019-05-29T07:23:55.125Z,2.80
2019-05-29T07:25:58.680Z,2.15
2019-05-29T07:28:02.166Z,3.55
2019-05-29T07:30:06.549Z,2.70
2019-05-29T07:32:10.134Z,4.60
2019-05-29T07:34:13.669Z,4.40
2019-05-29T07:36:17.135Z,8.38
2019-05-29T07:38:21.029Z,7.12
2019-05-29T07:40:24.950Z,7.05
2019-05-29T07:42:28.483Z,4.28
2019-05-29T07:44:32.039Z,5.45
2019-05-29T07:46:35.569Z,4.30
2019-05-29T07:48:40.401Z,5.72
2019-05-29T07:50:44.195Z,7.28
2019-05-29T07:52:48.963Z,7.30
2019-05-29T07:54:53.202Z,6.45
2019-05-29T07:56:56.726Z,5.15
2019-05-29T07:59:02.840Z,7.80
2019-05-29T08:01:13.222Z,5.40
2019-05-29T08:03:11.302Z,6.20
2019-05-29T08:05:15.412Z,5.05
2019-05-29T08:07:19.089Z,4.60
2019-05-29T08:09:22.627Z,6.45
2019-05-29T08:11:26.161Z,8.28
2019-05-29T08:13:29.719Z,3.55
2019-05-29T08:15:33.829Z,5.03
2019-05-29T08:17:37.702Z,4.70
2019-05-29T08:19:56.957Z,4.58
2019-05-29T08:21:46.549Z,7.95
2019-05-29T08:23:50.812Z,7.08
2019-05-29T08:25:54.450Z,5.20
2019-05-29T08:27:57.986Z,4.25
2019-05-29T08:30:01.452Z,7.60
2019-05-29T08:32:05.405Z,4.67
2019-05-29T08:34:09.398Z,4.90
2019-05-29T08:36:13.257Z,5.10
2019-05-29T08:38:17.063Z,10.05
2019-05-29T08:40:20.973Z,6.60
2019-05-29T08:42:24.579Z,6.40
2019-05-29T08:44:28.475Z,5.15
2019-05-29T08:46:33.487Z,7.33
2019-05-29T08:48:37.331Z,5.78
2019-05-29T08:50:41.537Z,9.75
2019-05-29T08:52:45.978Z,7.75
2019-05-29T08:54:50.126Z,7.15
2019-05-29T08:56:53.798Z,7.80
2019-05-29T08:58:57.329Z,7.47
2019-05-29T09:01:00.794Z,4.35
2019-05-29T09:03:04.256Z,6.62
2019-05-29T09:05:10.254Z,6.70
2019-05-29T09:07:13.798Z,6.10
2019-05-29T09:09:17.349Z,5.87
2019-05-29T09:11:20.870Z,7.00
2019-05-29T09:13:25.695Z,6.00
2019-05-29T09:15:29.526Z,5.62
2019-05-29T09:17:34.552Z,5.25
2019-05-29T09:19:38.521Z,3.60
2019-05-29T09:21:42.045Z,5.58
2019-05-29T09:23:46.034Z,4.25
2019-05-29T09:25:49.839Z,6.53
2019-05-29T09:27:53.382Z,5.33
2019-05-29T09:29:56.922Z,4.83
2019-05-29T09:32:00.734Z,4.50
2019-05-29T09:34:04.801Z,7.47
2019-05-29T09:36:08.571Z,7.53
2019-05-29T09:38:12.449Z,8.10
2019-05-29T09:40:19.175Z,6.85
2019-05-29T09:42:23.729Z,7.87
2019-05-29T09:44:37.682Z,6.58
2019-05-29T09:46:32.582Z,8.65
2019-05-29T09:48:48.723Z,4.20
2019-05-29T09:52:46.914Z,7.65
2019-05-29T09:53:44.926Z,9.58
2019-05-29T09:54:50.507Z,8.00
2019-05-29T09:56:56.168Z,4.33
2019-05-29T09:59:00.453Z,6.17
2019-05-29T10:01:21.438Z,7.40
2019-05-29T10:03:10.417Z,5.42
2019-05-29T10:05:14.332Z,7.83
2019-05-29T10:07:17.917Z,8.63
2019-05-29T10:09:21.464Z,6.35
2019-05-29T10:11:25.004Z,5.47
2019-05-29T10:13:28.545Z,5.35
2019-05-29T10:15:32.366Z,6.00
2019-05-29T10:17:36.377Z,6.25
2019-05-29T10:19:39.910Z,8.63
2019-05-29T10:21:43.442Z,12.80
2019-05-29T10:23:46.966Z,6.25
2019-05-29T10:25:50.681Z,11.05
2019-05-29T10:27:54.540Z,7.15
2019-05-29T10:29:58.178Z,7.50
2019-05-29T10:32:01.650Z,5.92
2019-05-29T10:34:05.514Z,7.50
2019-05-29T10:36:09.880Z,11.50
2019-05-29T10:38:13.490Z,7.67
2019-05-29T10:40:17.301Z,8.88
2019-05-29T10:42:20.941Z,9.03
2019-05-29T10:44:24.500Z,14.07
2019-05-29T10:46:28.370Z,16.55
2019-05-29T10:48:31.968Z,14.00
2019-05-29T10:50:35.630Z,22.75
2019-05-29T10:52:39.474Z,18.42
2019-05-29T10:54:44.084Z,24.27
2019-05-29T10:56:48.790Z,10.20
2019-05-29T10:58:59.012Z,15.75
2019-05-29T11:00:58.009Z,12.58
2019-05-29T11:03:01.872Z,17.10
2019-05-29T11:05:06.671Z,19.48
2019-05-29T11:07:10.245Z,11.38
2019-05-29T11:09:13.709Z,8.40
2019-05-29T11:11:17.181Z,10.58
2019-05-29T11:13:21.081Z,13.48
2019-05-29T11:15:24.916Z,8.03
2019-05-29T11:17:28.786Z,9.73
2019-05-29T11:19:32.690Z,9.53
2019-05-29T11:21:36.553Z,13.58
2019-05-29T11:23:40.110Z,16.52
2019-05-29T11:25:43.643Z,9.60
2019-05-29T11:27:48.437Z,40.60
2019-05-29T11:29:53.313Z,53.70
2019-05-29T11:31:57.265Z,22.02
2019-05-29T11:34:01.051Z,14.18
2019-05-29T11:36:10.679Z,6.00
2019-05-29T11:38:10.545Z,10.68
2019-05-29T11:40:14.837Z,12.07
2019-05-29T11:42:27.476Z,8.70
2019-05-29T11:44:23.967Z,17.48
2019-05-29T11:46:27.516Z,17.30
2019-05-29T11:48:32.146Z,14.73
2019-05-29T11:50:35.990Z,9.60
2019-05-29T11:52:43.016Z,9.80
2019-05-29T11:54:44.930Z,11.65
2019-05-29T11:56:49.028Z,9.18
2019-05-29T11:58:52.861Z,8.70
2019-05-29T12:00:57.188Z,30.40
2019-05-29T12:03:01.755Z,17.20
2019-05-29T12:05:10.705Z,35.40
2019-05-29T12:07:14.252Z,93.05
2019-05-29T12:09:31.899Z,55.25
2019-05-29T12:11:23.305Z,25.62
2019-05-29T12:13:26.838Z,13.40
2019-05-29T12:15:30.724Z,11.50
2019-05-29T12:17:34.454Z,12.13
2019-05-29T12:19:38.565Z,13.83
2019-05-29T12:21:42.963Z,25.82
2019-05-29T12:23:46.954Z,45.45
2019-05-29T12:26:10.310Z,31.87
2019-05-29T12:27:57.351Z,13.50
2019-05-29T12:30:01.339Z,7.97
2019-05-29T12:32:09.484Z,10.23
2019-05-29T12:34:18.781Z,9.83
2019-05-29T12:36:15.754Z,6.20
2019-05-29T12:38:19.359Z,12.10
2019-05-29T12:40:23.036Z,9.18
2019-05-29T12:42:26.493Z,6.87
2019-05-29T12:44:30.303Z,8.58
2019-05-29T12:46:33.930Z,8.10
2019-05-29T12:48:38.509Z,10.13
2019-05-29T12:50:42.046Z,8.38
2019-05-29T12:52:45.706Z,11.00
2019-05-29T12:54:49.357Z,13.80
2019-05-29T12:56:54.040Z,9.93
2019-05-29T12:58:58.294Z,110.00
2019-05-29T13:01:04.962Z,233.63
2019-05-29T13:03:08.725Z,42.88
2019-05-29T13:05:19.695Z,27.42
2019-05-29T13:07:18.839Z,14.98
2019-05-29T13:09:22.951Z,8.28
2019-05-29T13:11:28.447Z,6.55
2019-05-29T13:13:32.865Z,7.58
2019-05-29T13:15:36.481Z,8.80
2019-05-29T13:17:40.453Z,10.43
2019-05-29T13:19:43.965Z,4.85
2019-05-29T13:21:47.846Z,12.65
2019-05-29T13:23:51.397Z,14.10
2019-05-29T13:25:55.349Z,8.70
2019-05-29T13:27:59.879Z,13.43
2019-05-29T13:30:10.213Z,20.02
2019-05-29T13:32:13.773Z,12.60
2019-05-29T13:34:17.658Z,11.48
2019-05-29T13:36:21.647Z,8.73
2019-05-29T13:38:25.245Z,6.92
2019-05-29T13:40:29.046Z,12.18
2019-05-29T13:42:32.581Z,6.50
2019-05-29T13:44:36.339Z,8.70
2019-05-29T13:46:39.814Z,8.18
2019-05-29T13:48:44.255Z,10.85
2019-05-29T13:50:48.965Z,9.40
2019-05-29T13:52:53.029Z,6.37
2019-05-29T13:54:57.252Z,11.10
2019-05-29T13:57:02.507Z,7.45
2019-05-29T13:59:08.256Z,35.98
2019-05-29T14:01:12.278Z,5.67
2019-05-29T14:03:15.762Z,11.73
2019-05-29T14:05:19.554Z,11.95
2019-05-29T14:07:23.390Z,9.00
2019-05-29T14:09:27.398Z,9.18
2019-05-29T14:11:30.864Z,5.05
2019-05-29T14:13:34.746Z,6.95
2019-05-29T14:15:38.271Z,10.63
2019-05-29T14:17:41.740Z,7.17
2019-05-29T14:19:45.921Z,5.80
2019-05-29T14:21:49.391Z,7.08
2019-05-29T14:23:53.290Z,7.15
2019-05-29T14:25:56.841Z,6.22
2019-05-29T14:28:00.789Z,9.18
2019-05-29T14:30:08.414Z,11.30
2019-05-29T14:32:13.438Z,7.62
2019-05-29T14:34:17.433Z,9.03
2019-05-29T14:36:21.339Z,6.85
2019-05-29T14:38:24.873Z,8.88
2019-05-29T14:40:29.174Z,9.50
2019-05-29T14:42:33.085Z,8.03
2019-05-29T14:44:36.659Z,4.10
2019-05-29T14:46:40.242Z,8.90
2019-05-29T14:48:44.042Z,6.83
2019-05-29T14:50:47.593Z,6.55
2019-05-29T14:52:51.459Z,10.55
2019-05-29T14:54:55.005Z,10.65
2019-05-29T14:56:58.619Z,11.08
2019-05-29T14:59:03.212Z,5.70
2019-05-29T15:01:09.168Z,11.43
2019-05-29T15:03:13.591Z,8.50
2019-05-29T15:05:18.171Z,7.30
2019-05-29T15:07:22.929Z,8.93
2019-05-29T15:09:27.113Z,4.83
2019-05-29T15:11:30.655Z,7.87
2019-05-29T15:13:35.173Z,5.62
2019-05-29T15:15:38.793Z,5.90
2019-05-29T15:17:42.738Z,7.10
2019-05-29T15:19:46.318Z,6.67
2019-05-29T15:21:50.209Z,9.30
2019-05-29T15:23:54.019Z,5.72
2019-05-29T15:25:58.241Z,7.15
2019-05-29T15:28:01.791Z,7.78
2019-05-29T15:30:08.531Z,3.75
2019-05-29T15:32:12.464Z,8.20
2019-05-29T15:34:16.503Z,11.60
2019-05-29T15:36:20.258Z,5.70
2019-05-29T15:38:24.603Z,9.55
2019-05-29T15:40:28.135Z,10.03
2019-05-29T15:42:32.129Z,5.70
2019-05-29T15:44:35.726Z,10.40
2019-05-29T15:46:39.344Z,9.90
2019-05-29T15:48:42.935Z,8.78
2019-05-29T15:52:50.627Z,5.70
2019-05-29T15:54:54.174Z,5.97
2019-05-29T15:56:57.790Z,4.60
2019-05-29T15:59:01.429Z,8.83
2019-05-29T16:01:05.395Z,11.95
2019-05-29T16:03:09.462Z,5.12
2019-05-29T16:05:15.394Z,6.67
2019-05-29T16:07:19.242Z,3.75
2019-05-29T16:09:23.090Z,7.37
2019-05-29T16:11:26.636Z,12.50
2019-05-29T16:13:30.168Z,8.45
2019-05-29T16:15:33.990Z,13.08
2019-05-29T16:17:37.602Z,8.23
2019-05-29T16:19:41.690Z,5.37
2019-05-29T16:21:45.153Z,8.88
2019-05-29T16:23:48.634Z,5.75
2019-05-29T16:25:52.385Z,6.15
2019-05-29T16:27:55.928Z,12.90
2019-05-29T16:29:59.815Z,6.60
2019-05-29T16:32:03.342Z,3.12
2019-05-29T16:34:07.046Z,4.08
2019-05-29T16:36:12.561Z,6.33
2019-05-29T16:38:17.627Z,4.87
2019-05-29T16:40:23.895Z,4.90
2019-05-29T16:42:27.714Z,8.35
2019-05-29T16:44:33.937Z,7.33
2019-05-29T16:46:37.505Z,9.88
2019-05-29T16:48:40.981Z,9.20
2019-05-29T16:50:44.883Z,7.78
2019-05-29T16:52:48.768Z,9.58
2019-05-29T16:54:52.323Z,7.08
2019-05-29T16:56:56.058Z,40.10
2019-05-29T16:58:59.977Z,15.95
2019-05-29T17:01:03.592Z,11.78
2019-05-29T17:03:07.139Z,5.85
2019-05-29T17:05:11.033Z,9.50
2019-05-29T17:07:15.995Z,9.33
2019-05-29T17:09:20.339Z,10.45
2019-05-29T17:11:25.208Z,7.80
2019-05-29T17:13:28.881Z,5.17
2019-05-29T17:15:32.609Z,8.60
2019-05-29T17:17:36.553Z,6.12
2019-05-29T17:19:40.381Z,4.37
2019-05-29T17:21:44.777Z,5.53
2019-05-29T17:23:48.310Z,5.12
2019-05-29T17:25:51.774Z,5.87
2019-05-29T17:27:55.643Z,7.20
2019-05-29T17:29:59.367Z,5.55
2019-05-29T17:32:03.305Z,5.53
2019-05-29T17:34:06.781Z,10.93
2019-05-29T17:36:11.278Z,4.45
2019-05-29T17:38:15.403Z,4.17
2019-05-29T17:40:19.215Z,10.63
2019-05-29T17:42:22.699Z,7.15
2019-05-29T17:44:26.234Z,13.78
2019-05-29T17:46:30.245Z,11.30
2019-05-29T17:48:33.782Z,16.52
2019-05-29T17:50:37.702Z,7.05
2019-05-29T17:52:41.714Z,5.78
2019-05-29T17:54:46.930Z,5.20
2019-05-29T17:56:51.330Z,4.75
2019-05-29T17:58:55.089Z,6.05
2019-05-29T18:01:00.275Z,6.10
2019-05-29T18:03:05.356Z,6.05
2019-05-29T18:05:09.486Z,5.22
2019-05-29T18:07:13.146Z,6.35
2019-05-29T18:09:19.146Z,7.83
2019-05-29T18:11:23.320Z,6.60
2019-05-29T18:13:27.408Z,7.83
2019-05-29T18:15:31.313Z,7.72
2019-05-29T18:17:35.122Z,8.45
2019-05-29T18:19:39.061Z,10.50
2019-05-29T18:21:42.581Z,9.80
2019-05-29T18:23:47.034Z,8.93
2019-05-29T18:25:51.011Z,12.53
2019-05-29T18:27:54.518Z,10.93
2019-05-29T18:29:57.986Z,6.65
2019-05-29T18:32:01.770Z,19.10
2019-05-29T18:34:05.377Z,12.88
2019-05-29T18:36:09.178Z,15.60
2019-05-29T18:38:12.782Z,15.63
2019-05-29T18:40:18.661Z,10.65
2019-05-29T18:42:22.493Z,8.53
2019-05-29T18:44:26.919Z,7.58
2019-05-29T18:46:30.544Z,8.48
2019-05-29T18:48:34.514Z,8.48
2019-05-29T18:50:38.053Z,7.62
2019-05-29T18:52:41.662Z,9.30
2019-05-29T18:54:45.416Z,8.03
2019-05-29T18:57:13.194Z,14.25
2019-05-29T18:58:55.142Z,9.98
2019-05-29T19:00:59.478Z,9.03
2019-05-29T19:03:03.089Z,11.57
2019-05-29T19:05:10.997Z,13.45
2019-05-29T19:07:14.884Z,7.42
2019-05-29T19:09:18.568Z,5.78
2019-05-29T19:11:22.264Z,5.47
2019-05-29T19:13:25.915Z,7.30
2019-05-29T19:15:32.106Z,6.12
2019-05-29T19:17:36.227Z,6.17
2019-05-29T19:19:40.098Z,10.28
2019-05-29T19:21:43.957Z,9.38
2019-05-29T19:23:48.070Z,9.10
2019-05-29T19:25:51.673Z,6.50
2019-05-29T19:27:55.212Z,3.85
2019-05-29T19:29:58.755Z,5.70
2019-05-29T19:32:02.442Z,5.83
2019-05-29T19:34:06.364Z,12.20
2019-05-29T19:37:01.906Z,6.58
2019-05-29T19:39:08.379Z,5.53
2019-05-29T19:41:12.005Z,3.40
2019-05-29T19:43:15.556Z,4.78
2019-05-29T19:45:19.431Z,5.85
2019-05-29T19:47:24.510Z,6.10
2019-05-29T19:49:28.871Z,3.98
2019-05-29T19:51:33.652Z,11.08
2019-05-29T19:53:37.262Z,5.92
2019-05-29T19:55:40.837Z,5.33
2019-05-29T19:57:55.484Z,9.03
2019-05-29T19:59:51.520Z,5.28
2019-05-29T20:01:55.392Z,5.20
2019-05-29T20:03:58.930Z,5.50
2019-05-29T20:06:02.474Z,8.65
2019-05-29T20:08:06.380Z,7.12
2019-05-29T20:10:10.622Z,8.30
2019-05-29T20:12:14.498Z,5.95
2019-05-29T20:14:18.153Z,4.40
2019-05-29T20:16:21.614Z,6.90
2019-05-29T20:18:25.073Z,8.20
2019-05-29T20:20:28.914Z,6.78
2019-05-29T20:22:32.798Z,6.22
2019-05-29T20:24:36.927Z,8.25
2019-05-29T20:26:41.404Z,10.05
2019-05-29T20:28:45.054Z,9.48
2019-05-29T20:30:49.416Z,6.00
2019-05-29T20:32:52.953Z,9.45
2019-05-29T20:34:56.834Z,12.68
2019-05-29T20:37:01.741Z,8.15
2019-05-29T20:39:08.057Z,7.95
2019-05-29T20:41:12.438Z,8.15
2019-05-29T20:43:16.246Z,8.70
2019-05-29T20:45:20.359Z,12.05
2019-05-29T20:47:24.008Z,11.97
2019-05-29T20:49:28.370Z,12.58
2019-05-29T20:51:32.810Z,8.78
2019-05-29T20:53:37.824Z,10.75
2019-05-29T20:55:42.310Z,13.48
2019-05-29T20:57:46.771Z,12.58
2019-05-29T20:59:50.509Z,15.85
2019-05-29T21:01:54.366Z,15.15
2019-05-29T21:03:57.919Z,15.95
2019-05-29T21:06:01.759Z,11.85
2019-05-29T21:08:05.544Z,13.90
2019-05-29T21:10:10.494Z,9.48
2019-05-29T21:12:14.033Z,10.13
2019-05-29T21:14:17.609Z,13.95
2019-05-29T21:16:21.388Z,18.67
2019-05-29T21:18:24.925Z,27.93
2019-05-29T21:20:29.232Z,15.35
2019-05-29T21:22:34.430Z,21.27
2019-05-29T21:24:38.616Z,12.90
2019-05-29T21:26:43.254Z,18.52
2019-05-29T21:28:50.577Z,10.78
2019-05-29T21:30:53.658Z,9.43
2019-05-29T21:32:57.202Z,13.35
2019-05-29T21:35:01.645Z,11.80
2019-05-29T21:37:05.707Z,9.20
2019-05-29T21:39:09.609Z,10.40
2019-05-29T21:41:13.075Z,11.60
2019-05-29T21:43:16.958Z,9.80
2019-05-29T21:45:20.809Z,13.70
2019-05-29T21:47:24.614Z,11.10
2019-05-29T21:49:31.263Z,14.63
2019-05-29T21:51:34.117Z,10.40
2019-05-29T21:53:37.646Z,12.00
2019-05-29T21:55:41.618Z,10.80
2019-05-29T21:57:48.782Z,11.28
2019-05-29T21:59:51.467Z,8.28
2019-05-29T22:01:55.044Z,8.58
2019-05-29T22:03:58.874Z,9.50
2019-05-29T22:06:02.782Z,11.50
2019-05-29T22:08:06.817Z,12.60
2019-05-29T22:10:10.798Z,14.30
2019-05-29T22:12:14.670Z,13.25
2019-05-29T22:14:18.221Z,12.65
2019-05-29T22:16:22.098Z,9.30
2019-05-29T22:18:25.833Z,13.93
2019-05-29T22:20:29.480Z,11.45
2019-05-29T22:22:32.940Z,15.03
2019-05-29T22:24:36.701Z,15.35
2019-05-29T22:26:40.576Z,13.28
2019-05-29T22:28:44.401Z,17.57
2019-05-29T22:30:48.316Z,14.75
2019-05-29T22:32:53.175Z,12.75
2019-05-29T22:34:57.622Z,14.35
2019-05-29T22:37:01.768Z,19.12
2019-05-29T22:39:06.893Z,14.35
2019-05-29T22:41:11.198Z,12.10
2019-05-29T22:43:14.734Z,10.55
2019-05-29T22:45:18.608Z,11.35
2019-05-29T22:47:22.073Z,8.58
2019-05-29T22:49:25.652Z,10.35
2019-05-29T22:51:29.193Z,10.75
2019-05-29T22:53:32.761Z,8.08
2019-05-29T22:55:36.245Z,9.68
2019-05-29T22:57:39.785Z,9.20
2019-05-29T22:59:43.713Z,18.02
2019-05-29T23:01:47.445Z,12.78
2019-05-29T23:03:52.026Z,16.40
2019-05-29T23:05:56.122Z,13.50
2019-05-29T23:08:00.324Z,9.80
2019-05-29T23:10:08.413Z,13.43
2019-05-29T23:12:11.959Z,13.38
2019-05-29T23:14:15.573Z,12.33
2019-05-29T23:16:19.227Z,12.90
2019-05-29T23:18:23.638Z,11.20
2019-05-29T23:20:28.048Z,9.50
2019-05-29T23:22:31.617Z,9.93
2019-05-29T23:24:35.085Z,11.43
2019-05-29T23:26:38.630Z,12.03
2019-05-29T23:28:42.245Z,15.30
2019-05-29T23:30:45.713Z,9.95
2019-05-29T23:32:49.543Z,18.62
2019-05-29T23:34:53.155Z,10.23
2019-05-29T23:36:57.115Z,15.75
2019-05-29T23:39:01.390Z,14.85
2019-05-29T23:41:05.193Z,13.60
2019-05-29T23:43:09.089Z,13.70
2019-05-29T23:45:13.178Z,17.02
2019-05-29T23:47:16.722Z,19.23
2019-05-29T23:49:21.094Z,15.65
2019-05-29T23:51:25.493Z,10.10
2019-05-29T23:53:29.311Z,10.72
2019-05-29T23:55:32.898Z,9.83
2019-05-29T23:57:36.812Z,11.15
2019-05-29T23:59:40.710Z,8.98
